Latest Weather Observations for Cessnock Airport

IDN60801

Issued at 5:32 pm EST Saturday 5 September 2015 (issued every 30 minutes, with the page automatically refreshed every 10 minutes)

About weather observations | Map of weather stations | Latest weather observations for NSW | Other Formats
Station Details ID: 061260 Name: CESSNOCK AIRPORT AWS Lat: -32.79 Lon: 151.34 Height: 61.0 m
Data from the previous 72 hours. | See also: Recent months at Cessnock Airport
Date/Time
EST
Temp
°C
App
Temp
°C
Dew
Point
Rel
Hum
%
Delta-T
°C
Wind Press
QNH
hPa
Press
MSL
hPa
Rain
since 9 am
mm
Dir
 
Spd
km/h
Gust
km/h
Spd
kts
Gust
kts
05/05:30pm 16.3 13.8 11.0 71 2.8 SSE 15 20 8 11 1019.6 1019.6 0.4
05/05:00pm 17.1 15.6 11.8 71 2.9 ESE 11 15 6 8 1019.1 1019.1 0.4
05/04:30pm 18.0 16.9 12.0 68 3.3 ESE 9 13 5 7 1018.7 1018.7 0.4
05/04:00pm 18.1 17.8 13.2 73 2.8 E 7 11 4 6 1018.5 1018.5 0.4
05/03:30pm 17.0 15.6 12.3 74 2.6 W 11 17 6 9 1018.8 1018.8 0.2
05/03:00pm 19.2 18.2 10.2 56 4.8 ENE 6 7 3 4 1018.5 1018.5 0.0
05/02:30pm 18.6 18.6 9.9 57 4.6 CALM 0 7 0 4 1018.5 1018.5 0.0
05/02:00pm 18.5 18.7 10.6 60 4.3 CALM 0 0 0 0 1018.7 1018.7 0.0
05/01:30pm 18.5 17.6 10.8 61 4.2 NNE 6 9 3 5 1018.9 1018.9 0.0
05/01:00pm 18.3 16.8 10.7 61 4.1 NNE 9 13 5 7 1019.4 1019.4 0.0
05/12:30pm 18.4 17.3 11.9 66 3.6 WNW 9 15 5 8 1020.0 1020.0 0.0
05/12:00pm 17.3 15.6 11.3 68 3.2 NW 11 15 6 8 1020.5 1020.5 0.0
05/11:30am 15.3 13.6 11.3 77 2.1 N 11 19 6 10 1021.1 1021.1 0.0
05/11:00am 13.5 11.7 11.0 85 1.3 NNW 11 20 6 11 1021.5 1021.5 0.0
05/10:30am 12.0 10.2 10.7 92 0.7 NNW 11 15 6 8 1021.9 1021.9 0.0
05/10:00am 10.9 9.0 10.4 97 0.3 N 11 13 6 7 1022.4 1022.4 0.0
05/09:30am 10.8 9.3 10.6 99 0.1 NW 9 13 5 7 1022.6 1022.5 0.0
05/09:00am 10.3 8.3 10.1 99 0.1 N 11 13 6 7 1022.6 1022.5 0.4
05/08:30am 10.4 9.2 10.2 99 0.1 NW 7 13 4 7 1022.7 1022.6 0.4
05/08:00am 10.1 8.8 9.9 99 0.1 NW 7 11 4 6 1022.6 1022.5 0.4
05/07:30am 9.7 7.9 9.6 99 0.1 NW 9 13 5 7 1022.2 1022.2 0.4
05/07:00am 9.4 7.9 9.3 99 0.0 WNW 7 11 4 6 1022.0 1022.0 0.4
05/06:30am 9.2 7.9 9.1 99 0.0 NNW 6 11 3 6 1021.6 1021.6 0.4
05/06:00am 9.0 7.6 8.9 99 0.0 NNW 6 9 3 5 1021.0 1021.0 0.4
05/05:30am 8.9 7.5 8.8 99 0.0 N 6 9 3 5 1020.9 1020.9 0.4
05/05:00am 9.1 7.6 9.0 99 0.0 N 7 11 4 6 1020.5 1020.5 0.4
05/04:30am 9.7 8.3 9.6 99 0.1 N 7 9 4 5 1020.4 1020.4 0.4
05/04:00am 10.2 9.1 10.0 99 0.1 N 6 7 3 4 1020.4 1020.4 0.4
05/03:30am 10.4 10.1 10.1 98 0.2 ENE 2 7 1 4 1020.2 1020.2 0.4
05/03:00am 10.4 10.5 10.1 98 0.2 CALM 0 0 0 0 1020.3 1020.3 0.4
05/02:30am 10.1 9.7 9.6 97 0.3 WSW 2 6 1 3 1020.4 1020.4 0.4
05/02:00am 10.5 10.6 10.2 98 0.2 CALM 0 0 0 0 1020.7 1020.7 0.4
05/01:30am 10.5 10.6 10.0 97 0.3 CALM 0 0 0 0 1021.0 1021.0 0.4
05/01:00am 10.5 10.6 10.0 97 0.3 CALM 0 0 0 0 1021.3 1021.3 0.4
05/12:30am 11.1 11.3 10.6 97 0.3 CALM 0 0 0 0 1021.5 1021.5 0.4
05/12:00am 11.1 11.3 10.5 96 0.3 CALM 0 6 0 3 1021.7 1021.7 0.4
 
Date/Time
EST
Temp
°C
App
Temp
°C
Dew
Point
Rel
Hum
%
Delta-T
°C
Wind Press
QNH
hPa
Press
MSL
hPa
Rain
since 9 am
mm
Dir
 
Spd
km/h
Gust
km/h
Spd
kts
Gust
kts
04/11:30pm 11.4 11.7 10.9 97 0.3 CALM 0 0 0 0 1021.7 1021.7 0.2
04/11:00pm 11.3 11.5 10.7 96 0.3 CALM 0 0 0 0 1021.8 1021.8 0.0
04/10:30pm 11.4 11.7 10.8 96 0.3 CALM 0 0 0 0 1022.0 1022.0 0.0
04/10:00pm 11.4 11.6 10.6 95 0.4 CALM 0 0 0 0 1022.0 1022.0 0.0
04/09:30pm 11.9 12.3 11.1 95 0.4 CALM 0 6 0 3 1021.8 1021.8 0.0
04/09:00pm 12.7 12.1 11.8 94 0.5 NNE 6 7 3 4 1021.7 1021.7 0.0
04/08:30pm 12.6 11.8 11.2 91 0.7 WSW 6 7 3 4 1021.8 1021.8 0.0
04/08:00pm 12.6 13.0 11.2 91 0.7 CALM 0 0 0 0 1021.8 1021.8 0.0
04/07:30pm 12.6 12.9 11.0 90 0.8 CALM 0 0 0 0 1021.6 1021.6 0.0
04/07:00pm 13.3 13.7 11.2 87 1.1 CALM 0 0 0 0 1021.3 1021.3 0.0
04/06:30pm 14.0 13.8 11.7 86 1.2 W 4 7 2 4 1021.2 1021.2 0.0
04/06:00pm 13.9 13.3 11.8 87 1.1 NW 6 9 3 5 1021.0 1021.0 0.0
04/05:30pm 14.4 13.8 11.6 83 1.5 NW 6 11 3 6 1020.8 1020.8 0.0
04/05:00pm 15.7 13.9 10.7 72 2.7 ESE 11 17 6 9 1020.3 1020.3 0.0
04/04:30pm 16.2 15.2 10.9 71 2.8 SSW 7 9 4 5 1020.4 1020.4 0.0
04/04:00pm 15.7 14.6 10.5 71 2.7 SSW 7 9 4 5 1020.4 1020.4 0.0
04/03:30pm 15.7 12.7 10.7 72 2.7 S 17 22 9 12 1020.3 1020.3 0.0
04/03:00pm 17.2 14.6 10.6 65 3.5 SSE 15 20 8 11 1020.1 1020.1 0.0
04/02:30pm 17.0 14.8 10.8 67 3.3 SSE 13 20 7 11 1020.0 1020.0 0.0
04/02:00pm 17.2 14.6 10.6 65 3.5 SSE 15 22 8 12 1020.0 1020.0 0.0
04/01:30pm 17.1 14.2 10.9 67 3.3 SSE 17 28 9 15 1020.1 1020.1 0.0
04/01:00pm 16.3 14.2 11.2 72 2.7 SSW 13 20 7 11 1020.4 1020.4 0.0
04/12:30pm 15.5 12.6 10.9 74 2.5 SSW 17 26 9 14 1020.7 1020.7 0.0
04/12:00pm 15.6 12.8 11.2 75 2.4 S 17 26 9 14 1021.0 1021.0 0.0
04/11:30am 15.7 12.3 11.1 74 2.5 S 20 28 11 15 1021.1 1021.1 0.0
04/11:00am 16.3 13.0 11.5 73 2.6 S 20 30 11 16 1021.2 1021.2 0.0
04/10:30am 15.6 12.7 11.0 74 2.5 SSW 17 24 9 13 1021.3 1021.3 0.0
04/10:00am 15.4 12.6 11.2 76 2.2 SSW 17 24 9 13 1021.1 1021.1 0.0
04/09:30am 15.1 13.0 11.1 77 2.1 SSW 13 22 7 12 1021.1 1021.1 0.0
04/09:00am 14.8 12.2 10.8 77 2.1 SSW 15 20 8 11 1020.8 1020.8 1.4
04/08:30am 14.7 12.1 10.7 77 2.1 SSW 15 26 8 14 1020.5 1020.5 1.4
04/08:00am 14.4 12.4 11.4 82 1.6 SSW 13 20 7 11 1020.1 1020.1 1.4
04/07:30am 13.8 11.6 10.8 82 1.6 SSW 13 20 7 11 1019.8 1019.8 1.4
04/07:00am 14.4 11.7 10.4 77 2.1 SSW 15 30 8 16 1019.2 1019.2 1.4
04/06:30am 13.8 11.4 10.0 78 2.0 SW 13 20 7 11 1018.7 1018.7 1.4
04/06:00am 13.1 10.5 9.4 78 1.9 SSW 13 19 7 10 1017.9 1017.9 1.4
04/05:30am 13.1 11.2 9.2 77 2.0 SSW 9 17 5 9 1017.6 1017.6 1.4
04/05:00am 13.6 11.0 9.3 75 2.2 SW 13 20 7 11 1017.3 1017.3 1.4
04/04:30am 13.3 10.6 9.0 75 2.2 SW 13 17 7 9 1017.0 1017.0 1.4
04/04:00am 13.6 10.9 9.1 74 2.3 SW 13 19 7 10 1016.5 1016.5 1.4
04/03:30am 14.1 11.5 9.3 73 2.5 SW 13 20 7 11 1016.3 1016.3 1.4
04/03:00am 14.0 10.6 9.0 72 2.5 SSW 17 30 9 16 1015.6 1015.6 1.4
04/02:30am 13.7 10.5 8.3 70 2.7 SSW 15 24 8 13 1015.5 1015.5 1.4
04/02:00am 14.3 10.6 8.0 66 3.1 SSW 17 24 9 13 1015.2 1015.2 1.4
04/01:30am 14.9 10.7 7.5 61 3.7 SSW 19 28 10 15 1015.3 1015.3 1.4
04/01:00am 15.0 11.9 7.3 60 3.8 WSW 13 20 7 11 1015.2 1015.2 1.4
04/12:30am 14.8 12.0 7.1 60 3.8 W 11 17 6 9 1014.7 1014.7 1.4
04/12:00am 13.6 11.2 6.9 64 3.3 NW 9 15 5 8 1014.3 1014.3 1.4
 
Date/Time
EST
Temp
°C
App
Temp
°C
Dew
Point
Rel
Hum
%
Delta-T
°C
Wind Press
QNH
hPa
Press
MSL
hPa
Rain
since 9 am
mm
Dir
 
Spd
km/h
Gust
km/h
Spd
kts
Gust
kts
03/11:30pm 14.4 11.1 6.5 59 3.8 WSW 13 24 7 13 1014.0 1014.0 1.4
03/11:00pm 14.4 11.4 6.0 57 4.0 WNW 11 19 6 10 1013.7 1013.7 1.4
03/10:30pm 14.4 10.2 5.7 56 4.1 W 17 26 9 14 1013.3 1013.3 1.4
03/10:00pm 14.5 10.2 5.3 54 4.3 W 17 24 9 13 1013.2 1013.1 1.4
03/09:30pm 14.7 10.5 5.5 54 4.4 WNW 17 28 9 15 1013.1 1013.0 1.4
03/09:00pm 14.3 10.4 5.4 55 4.2 W 15 20 8 11 1012.6 1012.5 1.4
03/08:30pm 14.6 10.0 5.4 54 4.4 W 19 30 10 16 1012.1 1012.0 1.4
03/08:00pm 14.1 10.7 6.0 58 3.9 WNW 13 20 7 11 1011.6 1011.5 1.4
03/07:30pm 12.4 10.4 7.3 71 2.5 NNW 7 9 4 5 1011.0 1010.9 1.4
03/07:00pm 13.0 10.4 7.7 70 2.6 NW 11 15 6 8 1010.4 1010.3 1.4
03/06:30pm 14.0 11.3 7.3 64 3.3 NW 11 15 6 8 1010.1 1010.0 1.4
03/06:00pm 14.3 10.8 7.4 63 3.4 WNW 15 20 8 11 1009.5 1009.4 1.4
03/05:30pm 14.8 11.4 7.6 62 3.6 NW 15 24 8 13 1008.8 1008.7 1.4
03/05:00pm 15.9 12.5 7.7 58 4.1 NW 15 24 8 13 1008.3 1008.2 1.4
03/04:30pm 16.7 13.0 8.1 57 4.4 WNW 17 32 9 17 1007.8 1007.7 1.4
03/04:00pm 16.7 13.2 8.7 59 4.1 NW 17 30 9 16 1007.2 1007.1 1.4
03/03:30pm 16.0 11.7 9.4 65 3.4 NW 22 33 12 18 1007.1 1007.0 1.4
03/03:00pm 16.4 12.7 9.6 64 3.6 NW 19 33 10 18 1006.9 1006.8 1.4
03/02:30pm 14.5 12.0 11.1 80 1.8 NW 15 24 8 13 1006.8 1006.7 1.4
03/02:00pm 12.9 10.1 10.1 83 1.5 NNW 15 24 8 13 1006.9 1006.8 1.4
03/01:30pm 12.2 9.3 9.8 85 1.2 NW 15 24 8 13 1007.0 1006.9 1.2
03/01:00pm 13.5 10.9 9.4 76 2.1 WNW 13 28 7 15 1006.8 1006.7 1.0
03/12:30pm 16.0 12.0 9.0 63 3.6 NW 20 35 11 19 1006.7 1006.6 0.2
03/12:00pm 16.8 12.1 7.7 55 4.6 NW 22 33 12 18 1006.7 1006.6 0.2
03/11:30am 16.6 12.3 7.8 56 4.4 NNW 20 32 11 17 1006.8 1006.7 0.2
03/11:00am 16.6 13.0 8.3 58 4.2 NNW 17 30 9 16 1006.9 1006.8 0.2
03/10:30am 16.8 12.1 7.7 55 4.6 NW 22 33 12 18 1006.8 1006.7 0.2
03/10:00am 16.4 12.6 8.9 61 3.9 NW 19 30 10 16 1006.8 1006.7 0.2
03/09:30am 15.5 10.8 9.4 67 3.2 NW 24 35 13 19 1006.6 1006.5 0.2
03/09:00am 15.2 10.9 9.3 68 3.1 NW 22 33 12 18 1006.5 1006.4 5.6
03/08:30am 14.5 10.2 9.5 72 2.6 NW 22 35 12 19 1006.6 1006.5 5.6
03/08:00am 13.8 10.8 10.6 81 1.7 NW 17 28 9 15 1006.6 1006.5 5.6
03/07:30am 12.3 10.1 10.9 91 0.7 NW 13 22 7 12 1006.3 1006.2 5.6
03/07:00am 11.0 10.9 10.8 99 0.1 SSW 2 7 1 4 1006.0 1005.9 5.6
03/06:30am 9.9 8.7 9.6 98 0.2 ENE 6 7 3 4 1005.8 1005.7 5.6
03/06:00am 9.5 7.6 9.2 98 0.1 NE 9 11 5 6 1005.3 1005.3 5.6
03/05:30am 9.8 8.3 9.3 97 0.2 ENE 7 9 4 5 1005.0 1005.0 5.6
03/05:00am 10.1 8.9 9.5 96 0.3 E 6 7 3 4 1004.9 1004.9 5.6
03/04:30am 10.6 9.0 10.1 97 0.3 ESE 9 11 5 6 1005.0 1005.0 5.6
03/04:00am 10.8 9.2 10.2 96 0.3 ESE 9 13 5 7 1005.3 1005.3 5.6
03/03:55am 10.9 9.3 10.3 96 0.3 ENE 9 13 5 7 1003.9 1003.9 5.6
03/03:30am 10.9 9.7 10.3 96 0.3 NW 7 11 4 6 1006.1 1006.0 5.6
03/03:00am 10.7 8.3 10.1 96 0.3 NNE 13 17 7 9 1006.6 1006.5 5.2
03/02:30am 10.6 9.3 10.0 96 0.3 NNW 7 11 4 6 1007.1 1007.0 4.0
03/02:00am 10.9 9.3 10.1 95 0.4 NE 9 11 5 6 1007.6 1007.5 3.0
03/01:30am 11.0 9.9 10.1 94 0.5 N 6 9 3 5 1008.2 1008.1 2.2
03/01:00am 11.2 10.1 9.8 91 0.7 ENE 6 9 3 5 1008.3 1008.2 0.8
03/12:30am 11.2 10.4 9.8 91 0.7 S 4 9 2 5 1008.5 1008.4 0.8
03/12:00am 11.7 9.9 9.3 85 1.2 WSW 9 15 5 8 1008.8 1008.7 0.4
 
Date/Time
EST
Temp
°C
App
Temp
°C
Dew
Point
Rel
Hum
%
Delta-T
°C
Wind Press
QNH
hPa
Press
MSL
hPa
Rain
since 9 am
mm
Dir
 
Spd
km/h
Gust
km/h
Spd
kts
Gust
kts
02/11:30pm 12.4 10.2 7.7 73 2.3 WSW 9 13 5 7 1008.0 1007.9 0.0
02/11:00pm 12.9 10.2 7.4 69 2.7 SSW 11 15 6 8 1007.5 1007.4 0.0
02/10:30pm 10.6 8.3 7.3 80 1.6 SSE 9 13 5 7 1007.6 1007.5 0.0
02/10:00pm 11.3 8.5 7.0 75 2.1 SW 11 15 6 8 1008.9 1008.8 0.0
02/09:30pm 10.9 7.5 6.1 72 2.2 SW 13 15 7 8 1009.8 1009.7 0.0
02/09:00pm 10.4 8.3 6.5 77 1.8 S 7 9 4 5 1010.0 1009.9 0.0
02/08:30pm 11.5 9.1 7.2 75 2.1 SSW 9 13 5 7 1010.6 1010.5 0.0
02/08:00pm 11.4 9.1 7.5 77 1.9 WSW 9 13 5 7 1010.8 1010.7 0.0
02/07:30pm 12.1 10.1 7.0 71 2.5 WSW 7 11 4 6 1010.9 1010.8 0.0
02/07:00pm 12.4 9.7 7.3 71 2.5 WSW 11 13 6 7 1011.2 1011.1 0.0
02/06:30pm 13.2 11.3 6.8 65 3.1 WSW 6 9 3 5 1011.4 1011.3 0.0
02/06:00pm 14.2 13.5 7.0 62 3.5 CALM 0 0 0 0 1011.6 1011.5 0.0

Other Formats:

Comma delimited format used in spreadsheet applications
http://www.bom.gov.au/fwo/IDN60801/IDN60801.95771.axf

JavaScript Object Notation format (JSON) in row-major order
http://www.bom.gov.au/fwo/IDN60801/IDN60801.95771.json